LTBI/ESK METAR and TAF weather

Enter ICAO airport designator
Station Type Date Time Source
LTBI METAR 2022/06/27 17:50 UTC NOAA

LTBI 271750Z 30010KT 9999 FEW030TCU BKN035 18/13 Q1015 NOSIG RMK RWY08 31009KT 280V340


Station Type Date Time Source
LTBI Decoded METAR 2022/06/27 17:50 UTC NOAA

Eskisehir, Turkey (LTBI) 39-47N 030-34E 785M
Jun 27, 2022 - 01:50 PM EDT / 2022.06.27 1750 UTC
Wind: from the WNW (300 degrees) at 12 MPH (10 KT):0
Visibility: greater than 7 mile(s):0
Sky conditions: mostly cloudy
Weather: Towering cumulus clouds observed
Temperature: 64 F (18 C)
Dew Point: 55 F (13 C)
Relative Humidity: 72%
Pressure (altimeter): 29.97 in. Hg (1015 hPa)
ob: LTBI 271750Z 30010KT 9999 FEW030TCU BKN035 18/13 Q1015 NOSIG RMK RWY08 31009KT 280V340
cycle: 18

Station Type Date Time Source
LTBI TAF 2012/05/11 09:09 UTC NOAA

TAF LTBI 110740Z 1109/1121 VRB02KT 6000 -SHRA BKN030 BKN090
TEMPO 1112/1116 33015KT 4000 -TSRA FEW025CB BKN030

Example: see airport list